• Join FlightAware (Why Join?)
  • Login
  • US Flag 
08:18AM EDT


 

Airport Tracker/Info


-or-


 

Live Flight TrackerFlight Track Log ✈ N83WD ✈ 19-Dec-2013 ✈ KGPM - KDTN

Flight Track Log - Related Links

Times and Time Zones

All times are in EST time to prevent confusion due to time zone crossing. See the N83WD flight status page for this flight to view local times or setup timezone preferences in your user account.

Time Position Orientation Groundspeed Altitude Reporting Facility
EST Latitude Longitude Course Direction KTS MPH feet Rate Location/Type
04:53PM 32.7000 -97.0500 180° South 109 125 600  Level Dallas / Fort Worth TRACON
04:53PM 32.6833 -97.0500 180° South 108 124 1,000 1,080 Climbing Dallas / Fort Worth TRACON
04:55PM 32.6328 -97.0686 197° South 127 146 2,700 960 Climbing Fort Worth Center
04:56PM 32.6003 -97.0689 180° South 133 153 3,600 480 Climbing Fort Worth Center
04:57PM 32.6033 -97.0103 86° East 181 208 3,800 120 Climbing Fort Worth Center
04:58PM 32.6083 -96.9422 85° East 191 220 3,900  Climbing Fort Worth Center
04:59PM 32.6111 -96.8736 87° East 194 223 3,900  Level Fort Worth Center
05:00PM 32.6075 -96.8067 94° East 197 227 3,900  Level Fort Worth Center
05:01PM 32.6069 -96.7411 91° East 198 228 3,900  Level Fort Worth Center
05:02PM 32.6064 -96.6747 91° East 202 232 3,900  Level Fort Worth Center
05:03PM 32.6047 -96.6050 92° East 197 227 3,900  Level Fort Worth Center
05:04PM 32.6039 -96.5414 91° East 194 223 3,900  Level Fort Worth Center
05:05PM 32.6036 -96.4706 90° East 199 229 3,900  Level Fort Worth Center
05:06PM 32.6014 -96.4056 92° East 198 228 3,900 60 Level Fort Worth Center
05:07PM 32.6025 -96.3361 89° East 195 224 4,100 720 Climbing Fort Worth Center
05:08PM 32.6033 -96.2758 89° East 185 213 5,400 1,140 Climbing Fort Worth Center
05:09PM 32.5983 -96.2167 96° East 170 196 6,500 1,020 Climbing Fort Worth Center
05:10PM 32.5964 -96.1589 92° East 173 199 7,600 1,080 Climbing Fort Worth Center
05:11PM 32.5981 -96.0931 88° East 185 213 8,800 960 Climbing Fort Worth Center
05:12PM 32.5953 -96.0317 93° East 187 215 9,700 480 Climbing Fort Worth Center
05:13PM 32.5947 -95.9608 91° East 215 247 9,800 540 Climbing Fort Worth Center
05:14PM 32.5942 -95.8828 90° East 217 250 10,900 960 Climbing Fort Worth Center
05:15PM 32.5942 -95.8153 90° East 207 238 11,900 960 Climbing Fort Worth Center
05:16PM 32.5936 -95.7411 90° East 208 239 12,900 480 Climbing Fort Worth Center
05:18PM 32.5900 -95.6686 93° East 219 252 12,900  Level Fort Worth Center
05:19PM 32.5883 -95.5922 91° East 230 265 12,900  Level Fort Worth Center
05:20PM 32.5861 -95.5167 92° East 230 265 12,900  Level Fort Worth Center
05:21PM 32.5864 -95.4403 90° East 231 266 12,900  Level Fort Worth Center
05:22PM 32.5839 -95.3650 92° East 230 265 12,900 60 Level Fort Worth Center
05:23PM 32.5839 -95.2842 90° East 231 266 13,100 60 Climbing Fort Worth Center
05:24PM 32.5803 -95.2072 93° East 234 269 13,100 -60 Level Fort Worth Center
05:25PM 32.5789 -95.1150 91° East 234 269 13,000 -60 Descending Fort Worth Center
05:26PM 32.5767 -95.0386 92° East 234 269 13,000  Level Fort Worth Center
05:27PM 32.5753 -94.9617 91° East 234 269 13,000  Level Fort Worth Center
05:28PM 32.5733 -94.8861 92° East 230 265 13,100  Climbing Fort Worth Center
05:29PM 32.5708 -94.8086 92° East 234 269 13,000 -60 Descending Fort Worth Center
05:30PM 32.5686 -94.7311 92° East 235 270 13,000  Level Fort Worth Center
05:31PM 32.5667 -94.6364 91° East 238 274 13,000 60 Level Fort Worth Center
05:31PM 32.5644 -94.6206 99° East 232 267 13,100  Climbing Fort Worth Center
05:32PM 32.5628 -94.5861 93° East 232 267 13,000 -180 Descending Fort Worth Center
05:32PM 32.5656 -94.5600 83° East 234 269 13,000 -240 Level Fort Worth Center
05:33PM 32.5608 -94.5097 96° East 233 268 12,800 -600 Descending Fort Worth Center
05:33PM 32.5611 -94.4753 89° East 240 276 12,400 -1,140 Descending Fort Worth Center
05:34PM 32.5589 -94.4308 93° East 257 296 11,800 -1,200 Descending Fort Worth Center
05:34PM 32.5589 -94.3881 90° East 263 303 11,200 -1,320 Descending Fort Worth Center
05:35PM 32.5561 -94.3422 94° East 269 310 10,500 -1,380 Descending Fort Worth Center
05:35PM 32.5569 -94.2936 89° East 267 307 9,800 -1,380 Descending Fort Worth Center
05:36PM 32.5547 -94.2408 93° East 268 308 9,000 -1,380 Descending Fort Worth Center
05:36PM 32.5539 -94.2064 92° East 266 306 8,400 -1,800 Descending Fort Worth Center
05:37PM 32.5506 -94.1622 95° East 265 305 7,400 -1,800 Descending Fort Worth Center
05:37PM 32.5517 -94.1128 88° East 265 305 6,600 -1,320 Descending Fort Worth Center
05:38PM 32.5519 -94.0756 89° East 260 299 6,100 -1,200 Descending Fort Worth Center
05:38PM 32.5503 -94.0308 93° East 250 288 5,400 -1,200 Descending Fort Worth Center
05:39PM 32.5456 -93.9972 99° East 242 278 4,900 -1,260 Descending Fort Worth Center
05:39PM 32.5481 -93.9469 87° East 240 276 4,100 -1,320 Descending Fort Worth Center
05:40PM 32.5453 -93.9206 97° East 227 261 3,600 -1,380 Descending Fort Worth Center
05:40PM 32.5500 -93.8739 83° East 228 262 2,700 -1,500 Descending Fort Worth Center
05:41PM 32.5578 -93.8481 70° East 231 266 2,100 -600 Descending Fort Worth Center
05:41PM 32.5756 -93.8108 60° Northeast 213 245 2,100 -300 Level Fort Worth Center
05:42PM 32.5822 -93.7967 61° Northeast 158 182 1,800 -1,380 Descending Fort Worth Center
05:42PM 32.5692 -93.7717 122° Southeast 129 148 700 -1,320 Descending Fort Worth Center
05:43PM 32.5594 -93.7664 155° Southeast 99 114 500 -420 Descending Fort Worth Center
05:43PM 32.5492 -93.7533 133° Southeast 112 129 300 -300 Descending Fort Worth Center
05:45PM 32.5402 -93.7450 90° East  Level Estimated
05:52PM 32.5402 -93.7450 90° East  Level Estimated